Time;durP1;ratioP1;P1;durP2;ratioP2;P2;SDS_P1;SDS_P2;PMS_P1;PMS_P2;Temp;Humidity;BMP_temperature;BMP_pressure;BME280_temperature;BME280_humidity;BME280_pressure;Samples;Min_cycle;Max_cycle;Signal;HPM_P1;HPM_P2
2021/10/02 00:34:17;;;;;;;0.00;0.00;;;11.80;71.80;;;;;;5066081;28;20110;-81
2021/10/02 00:44:47;;;;;;;0.00;0.00;;;11.70;72.20;;;;;;5004416;28;20036;-81
2021/10/02 00:47:20;;;;;;;0.00;0.00;;;11.70;72.30;;;;;;5033880;28;20033;-80
2021/10/02 00:49:46;;;;;;;0.00;0.00;;;11.70;72.60;;;;;;5033153;28;20033;-87
2021/10/02 00:52:15;;;;;;;0.00;0.00;;;11.70;72.60;;;;;;5033383;28;20034;-80
2021/10/02 00:54:41;;;;;;;0.00;0.00;;;11.60;72.60;;;;;;5033039;28;20067;-79
2021/10/02 00:57:07;;;;;;;0.00;0.00;;;11.70;72.80;;;;;;5015295;28;20042;-80
2021/10/02 00:59:33;;;;;;;0.00;0.00;;;11.60;72.90;;;;;;5015487;28;20029;-80
2021/10/02 01:02:20;;;;;;;0.00;0.00;;;11.60;72.90;;;;;;5033110;28;20036;-80
2021/10/02 01:05:09;;;;;;;0.00;0.00;;;11.60;73.10;;;;;;5033291;28;20028;-79
2021/10/02 01:07:46;;;;;;;0.00;0.00;;;11.60;73.20;;;;;;5015386;28;20027;-80
2021/10/02 01:10:44;;;;;;;0.00;0.00;;;11.60;73.20;;;;;;5015635;28;20053;-81
2021/10/02 01:13:15;;;;;;;0.00;0.00;;;11.60;73.30;;;;;;5032978;28;20033;-79
2021/10/02 01:16:02;;;;;;;0.00;0.00;;;11.60;73.30;;;;;;5016409;28;20477;-80
2021/10/02 01:18:41;;;;;;;0.00;0.00;;;11.60;73.40;;;;;;5036626;28;20025;-79
2021/10/02 01:21:24;;;;;;;0.00;0.00;;;11.50;73.40;;;;;;5024465;28;20029;-80
2021/10/02 01:24:03;;;;;;;0.00;0.00;;;11.50;73.50;;;;;;5056767;28;20436;-81
2021/10/02 01:26:44;;;;;;;0.00;0.00;;;11.50;73.60;;;;;;5056223;28;20049;-81
2021/10/02 01:29:12;;;;;;;0.00;0.00;;;11.50;73.60;;;;;;5056484;28;20025;-81
2021/10/02 01:31:47;;;;;;;0.00;0.00;;;11.50;73.80;;;;;;5056388;28;20044;-80
2021/10/02 01:34:32;;;;;;;0.00;0.00;;;11.50;74.00;;;;;;5056315;28;20096;-80
2021/10/02 01:47:53;;;;;;;0.00;0.00;;;11.40;74.60;;;;;;5056175;28;20039;-81
2021/10/02 01:50:25;;;;;;;0.00;0.00;;;11.40;74.80;;;;;;5039271;28;20031;-80
2021/10/02 01:52:51;;;;;;;0.00;0.00;;;11.40;75.10;;;;;;5055586;28;20121;-82
2021/10/02 01:55:19;;;;;;;0.00;0.00;;;11.40;75.20;;;;;;5038248;28;20384;-81
2021/10/02 01:57:52;;;;;;;0.00;0.00;;;11.40;75.30;;;;;;5056023;28;20100;-80
2021/10/02 02:00:18;;;;;;;0.00;0.00;;;11.40;75.50;;;;;;5037853;28;20389;-80
2021/10/02 02:02:48;;;;;;;0.00;0.00;;;11.40;75.60;;;;;;5044768;28;20022;-81
2021/10/02 02:05:17;;;;;;;0.00;0.00;;;11.40;75.70;;;;;;5037079;28;20025;-80
2021/10/02 02:07:48;;;;;;;0.00;0.00;;;11.40;75.80;;;;;;5056160;28;20082;-81
2021/10/02 02:10:15;;;;;;;0.00;0.00;;;11.40;76.00;;;;;;5044059;28;20034;-81
2021/10/02 02:12:43;;;;;;;0.00;0.00;;;11.30;76.20;;;;;;5074349;28;20029;-81
2021/10/02 02:15:11;;;;;;;0.00;0.00;;;11.30;76.50;;;;;;5057834;28;20029;-81
2021/10/02 02:17:41;;;;;;;0.00;0.00;;;11.30;76.60;;;;;;5074423;28;20097;-81
2021/10/02 02:20:08;;;;;;;0.00;0.00;;;11.30;76.70;;;;;;5075522;28;20064;-80
2021/10/02 02:22:34;;;;;;;0.00;0.00;;;11.30;76.80;;;;;;5075588;28;20020;-79
2021/10/02 02:25:02;;;;;;;0.00;0.00;;;11.30;76.80;;;;;;5075475;28;20378;-82
2021/10/02 02:27:28;;;;;;;0.00;0.00;;;11.30;76.90;;;;;;5074583;28;20024;-80
2021/10/02 02:29:54;;;;;;;0.00;0.00;;;11.30;76.90;;;;;;5059097;28;20361;-81
2021/10/02 02:32:20;;;;;;;0.00;0.00;;;11.20;76.90;;;;;;5078045;28;20060;-81
2021/10/02 02:34:46;;;;;;;0.00;0.00;;;11.20;76.90;;;;;;5077583;28;20048;-80
2021/10/02 02:37:12;;;;;;;0.00;0.00;;;11.20;77.00;;;;;;5076868;28;20024;-81
2021/10/02 02:39:38;;;;;;;0.00;0.00;;;11.20;77.00;;;;;;5076102;28;20070;-80
2021/10/02 02:42:04;;;;;;;0.00;0.00;;;11.20;76.90;;;;;;5076850;28;20036;-79
2021/10/02 02:44:31;;;;;;;0.00;0.00;;;11.30;76.90;;;;;;5076332;28;20024;-80
2021/10/02 02:47:02;;;;;;;0.00;0.00;;;11.30;76.90;;;;;;5080746;28;20515;-81
2021/10/02 02:49:35;;;;;;;0.00;0.00;;;11.30;76.80;;;;;;5065801;28;20038;-80
2021/10/02 02:52:09;;;;;;;0.00;0.00;;;11.30;76.60;;;;;;5057077;28;20435;-80
2021/10/02 02:54:40;;;;;;;0.00;0.00;;;11.30;76.40;;;;;;5054985;28;20030;-80
2021/10/02 02:57:27;;;;;;;0.00;0.00;;;11.30;76.50;;;;;;5054632;28;20053;-79
2021/10/02 03:00:05;;;;;;;0.00;0.00;;;11.30;76.40;;;;;;5036969;28;20048;-79
2021/10/02 03:02:36;;;;;;;0.00;0.00;;;11.40;76.30;;;;;;5054600;28;20049;-79
2021/10/02 03:05:04;;;;;;;0.00;0.00;;;11.40;76.10;;;;;;5054747;28;20035;-80
2021/10/02 03:07:31;;;;;;;0.00;0.00;;;11.50;75.90;;;;;;5054840;28;20021;-81
2021/10/02 03:09:57;;;;;;;0.00;0.00;;;11.50;75.70;;;;;;5054517;28;20130;-81
2021/10/02 03:12:33;;;;;;;0.00;0.00;;;11.60;75.30;;;;;;5054374;28;20484;-80
2021/10/02 03:15:00;;;;;;;0.00;0.00;;;11.60;74.80;;;;;;5054668;28;20106;-80
2021/10/02 03:17:28;;;;;;;0.00;0.00;;;11.60;74.40;;;;;;5054397;28;20484;-80
2021/10/02 03:19:55;;;;;;;0.00;0.00;;;11.60;74.10;;;;;;5054190;28;20491;-79
2021/10/02 03:22:21;;;;;;;0.00;0.00;;;11.50;73.80;;;;;;5054318;28;20029;-79
2021/10/02 03:24:49;;;;;;;0.00;0.00;;;11.50;73.60;;;;;;5055195;28;20462;-79
2021/10/02 03:27:15;;;;;;;0.00;0.00;;;11.40;73.40;;;;;;5054278;28;20049;-79
2021/10/02 03:29:42;;;;;;;0.00;0.00;;;11.40;73.30;;;;;;5073160;28;20032;-79
2021/10/02 03:32:09;;;;;;;0.00;0.00;;;11.30;73.40;;;;;;5074058;28;20068;-78
2021/10/02 03:34:36;;;;;;;0.00;0.00;;;11.20;73.70;;;;;;5074671;28;20085;-80
2021/10/02 03:37:03;;;;;;;0.00;0.00;;;11.10;73.80;;;;;;5074020;28;20066;-79
2021/10/02 03:39:28;;;;;;;0.00;0.00;;;11.10;74.00;;;;;;5055988;28;20482;-78
2021/10/02 03:42:12;;;;;;;0.00;0.00;;;11.00;74.20;;;;;;5074249;28;20175;-80
2021/10/02 03:44:43;;;;;;;0.00;0.00;;;11.00;74.50;;;;;;5073753;28;20029;-80
2021/10/02 03:47:10;;;;;;;0.00;0.00;;;10.90;74.50;;;;;;5072686;28;20596;-80
2021/10/02 03:49:36;;;;;;;0.00;0.00;;;10.90;74.70;;;;;;5073724;28;20449;-80
2021/10/02 03:52:03;;;;;;;0.00;0.00;;;10.80;74.80;;;;;;5072573;28;20036;-81
2021/10/02 03:54:29;;;;;;;0.00;0.00;;;10.80;74.90;;;;;;5073657;28;20107;-80
2021/10/02 03:56:55;;;;;;;0.00;0.00;;;10.80;74.80;;;;;;5073922;28;20056;-80
2021/10/02 03:59:21;;;;;;;0.00;0.00;;;10.80;74.70;;;;;;5073761;28;20024;-79
2021/10/02 04:01:46;;;;;;;0.00;0.00;;;10.80;74.40;;;;;;5074008;28;20032;-80
2021/10/02 04:04:12;;;;;;;0.00;0.00;;;10.70;74.20;;;;;;5073690;28;20507;-80
2021/10/02 04:06:38;;;;;;;0.00;0.00;;;10.70;74.00;;;;;;5073802;28;20033;-80
2021/10/02 04:09:03;;;;;;;0.00;0.00;;;10.70;73.90;;;;;;5064297;28;20033;-80
2021/10/02 04:11:30;;;;;;;0.00;0.00;;;10.70;73.70;;;;;;5035701;28;20028;-80
2021/10/02 04:13:56;;;;;;;0.00;0.00;;;10.70;73.30;;;;;;5053388;28;20028;-79
2021/10/02 04:16:22;;;;;;;0.00;0.00;;;10.70;72.90;;;;;;5050217;28;20032;-79
2021/10/02 04:18:48;;;;;;;0.00;0.00;;;10.70;72.50;;;;;;5041386;28;20029;-83
2021/10/02 04:21:14;;;;;;;0.00;0.00;;;10.70;72.10;;;;;;5047543;28;20013;-80
2021/10/02 04:23:40;;;;;;;0.00;0.00;;;10.80;71.70;;;;;;5042603;28;20017;-80
2021/10/02 04:26:06;;;;;;;0.00;0.00;;;10.70;71.30;;;;;;5046672;28;20088;-81
2021/10/02 04:28:32;;;;;;;0.00;0.00;;;10.70;70.90;;;;;;5033438;28;20038;-79
2021/10/02 04:31:02;;;;;;;0.00;0.00;;;10.80;70.50;;;;;;5034491;28;20335;-80
2021/10/02 04:33:31;;;;;;;0.00;0.00;;;10.70;69.90;;;;;;5020528;28;20038;-82
2021/10/02 04:35:58;;;;;;;0.00;0.00;;;10.70;69.30;;;;;;5043830;28;20017;-81
2021/10/02 04:38:24;;;;;;;0.15;0.00;;;10.80;69.00;;;;;;5041200;28;20370;-80
2021/10/02 04:40:54;;;;;;;0.00;0.00;;;10.80;68.80;;;;;;5042406;28;20029;-81
2021/10/02 04:43:22;;;;;;;0.00;0.00;;;10.80;68.50;;;;;;5017921;28;20052;-79
2021/10/02 04:45:48;;;;;;;0.00;0.00;;;10.90;68.20;;;;;;5015696;28;20026;-80
2021/10/02 04:48:14;;;;;;;0.00;0.00;;;10.90;68.00;;;;;;5032887;28;20159;-80
2021/10/02 04:50:40;;;;;;;0.00;0.00;;;10.90;67.80;;;;;;5034651;28;20494;-80
2021/10/02 04:53:06;;;;;;;0.00;0.00;;;10.90;67.70;;;;;;5018929;28;20033;-80
2021/10/02 04:55:32;;;;;;;0.00;0.00;;;11.00;67.60;;;;;;5019395;28;20022;-80
2021/10/02 04:57:57;;;;;;;0.10;0.10;;;11.00;67.60;;;;;;5036735;28;20113;-80
2021/10/02 05:00:23;;;;;;;0.00;0.00;;;11.10;67.50;;;;;;5037018;28;20029;-79
2021/10/02 05:02:49;;;;;;;0.00;0.00;;;11.20;67.30;;;;;;5037063;28;20032;-79
2021/10/02 05:05:15;;;;;;;0.00;0.00;;;11.20;67.10;;;;;;5036616;28;20029;-80
2021/10/02 05:07:41;;;;;;;0.00;0.00;;;11.30;67.10;;;;;;5036781;28;20120;-79
2021/10/02 05:10:07;;;;;;;0.00;0.00;;;11.30;67.00;;;;;;5036605;28;20053;-80
2021/10/02 05:12:33;;;;;;;0.00;0.00;;;11.40;67.00;;;;;;5036846;28;20037;-80
2021/10/02 05:14:59;;;;;;;0.00;0.00;;;11.50;67.00;;;;;;5056355;28;20098;-80
2021/10/02 05:17:24;;;;;;;0.00;0.00;;;11.60;67.00;;;;;;5055610;28;20366;-86
2021/10/02 05:19:51;;;;;;;0.00;0.00;;;11.60;67.00;;;;;;5057657;28;20032;-81
2021/10/02 05:22:18;;;;;;;0.05;0.00;;;11.70;67.10;;;;;;5040234;28;20380;-83
2021/10/02 05:24:45;;;;;;;0.00;0.00;;;11.80;67.20;;;;;;5040653;28;20031;-81
2021/10/02 05:27:13;;;;;;;0.00;0.00;;;11.90;67.70;;;;;;5039716;28;20061;-82
2021/10/02 05:29:41;;;;;;;0.00;0.00;;;12.00;66.90;;;;;;5040716;28;20029;-83
2021/10/02 05:32:09;;;;;;;0.00;0.00;;;12.00;66.50;;;;;;5040485;28;20158;-81
2021/10/02 05:34:35;;;;;;;0.00;0.00;;;12.10;66.80;;;;;;5040897;28;20025;-81
2021/10/02 05:37:01;;;;;;;0.00;0.00;;;12.10;66.00;;;;;;5048920;28;20036;-80
2021/10/02 05:39:27;;;;;;;0.00;0.00;;;12.20;65.90;;;;;;5056852;28;20052;-81
2021/10/02 05:41:54;;;;;;;0.00;0.00;;;12.20;65.50;;;;;;5032470;28;20068;-81
2021/10/02 05:44:21;;;;;;;0.00;0.00;;;12.30;65.30;;;;;;5046058;28;20033;-79
2021/10/02 05:46:47;;;;;;;0.00;0.00;;;12.40;64.90;;;;;;5048927;28;20029;-80
2021/10/02 05:49:13;;;;;;;0.00;0.00;;;12.40;64.60;;;;;;5045471;28;20025;-80
2021/10/02 05:51:39;;;;;;;0.00;0.00;;;12.50;64.30;;;;;;5047530;28;20025;-81
2021/10/02 05:54:05;;;;;;;0.00;0.00;;;12.60;63.60;;;;;;5041469;28;20480;-81
2021/10/02 05:56:30;;;;;;;0.00;0.00;;;12.70;63.10;;;;;;5043915;28;20104;-80
2021/10/02 05:58:56;;;;;;;0.00;0.00;;;12.80;62.60;;;;;;5055133;28;20036;-81
2021/10/02 06:01:22;;;;;;;0.00;0.00;;;12.90;62.00;;;;;;5036945;28;20033;-81
2021/10/02 06:03:48;;;;;;;0.00;0.00;;;13.00;61.30;;;;;;5037862;28;20021;-81
2021/10/02 06:06:14;;;;;;;0.00;0.00;;;13.00;60.40;;;;;;5037686;28;20028;-81
2021/10/02 06:08:40;;;;;;;0.00;0.00;;;13.10;60.00;;;;;;5037266;28;20040;-81
2021/10/02 06:11:06;;;;;;;0.00;0.00;;;13.10;59.60;;;;;;5055288;28;20025;-81
2021/10/02 06:13:35;;;;;;;0.00;0.00;;;13.20;59.40;;;;;;5055497;28;20108;-80
2021/10/02 06:19:23;;;;;;;0.00;0.00;;;13.40;58.70;;;;;;5055396;28;20079;-80
2021/10/02 06:21:49;;;;;;;0.00;0.00;;;13.50;58.50;;;;;;5056105;28;20036;-79
2021/10/02 06:24:15;;;;;;;0.00;0.00;;;13.60;58.40;;;;;;5055078;28;20033;-78
2021/10/02 06:26:41;;;;;;;0.00;0.00;;;13.70;58.30;;;;;;5037296;28;20099;-79
2021/10/02 06:29:08;;;;;;;0.00;0.00;;;13.80;58.20;;;;;;5054991;28;20021;-83
2021/10/02 06:31:36;;;;;;;0.00;0.00;;;13.80;58.30;;;;;;5055197;28;20033;-80
2021/10/02 06:34:01;;;;;;;0.00;0.00;;;13.90;58.60;;;;;;5054832;28;20484;-80
2021/10/02 06:36:28;;;;;;;0.00;0.00;;;14.00;59.20;;;;;;5037309;28;20033;-81
2021/10/02 06:38:55;;;;;;;0.00;0.00;;;14.10;59.80;;;;;;5054894;28;20036;-81
2021/10/02 06:41:22;;;;;;;0.00;0.00;;;14.20;60.40;;;;;;5054653;28;20036;-82
2021/10/02 06:43:48;;;;;;;0.00;0.00;;;14.30;61.00;;;;;;5040017;28;20065;-82
2021/10/02 06:46:14;;;;;;;0.00;0.00;;;14.40;61.70;;;;;;5045505;28;20025;-80
2021/10/02 06:48:41;;;;;;;0.00;0.00;;;14.50;62.20;;;;;;5017140;28;20030;-81
2021/10/02 06:51:08;;;;;;;0.00;0.00;;;14.60;62.70;;;;;;5017081;28;20079;-79
2021/10/02 06:53:34;;;;;;;0.00;0.00;;;14.70;63.10;;;;;;5040001;28;20032;-81
2021/10/02 06:56:00;;;;;;;0.00;0.00;;;14.80;63.30;;;;;;5026707;28;20374;-81
2021/10/02 06:58:25;;;;;;;0.00;0.00;;;14.80;63.30;;;;;;5043033;28;20029;-81
2021/10/02 07:00:51;;;;;;;0.00;0.00;;;15.00;63.40;;;;;;5042443;28;20067;-81
2021/10/02 07:03:17;;;;;;;0.00;0.00;;;15.00;63.20;;;;;;5042541;28;20095;-82
2021/10/02 07:05:51;;;;;;;0.00;0.00;;;15.20;63.20;;;;;;5024229;28;20024;-82
2021/10/02 07:08:34;;;;;;;0.00;0.00;;;15.30;63.40;;;;;;5047130;28;20078;-82
2021/10/02 07:11:05;;;;;;;0.00;0.00;;;15.40;63.70;;;;;;5028378;28;20475;-80
2021/10/02 07:13:31;;;;;;;0.00;0.00;;;15.50;64.00;;;;;;5053113;28;20108;-81
2021/10/02 07:15:57;;;;;;;0.00;0.00;;;15.70;64.30;;;;;;5025335;28;20485;-82
2021/10/02 07:18:23;;;;;;;0.00;0.00;;;15.80;64.40;;;;;;5048339;28;20096;-81
2021/10/02 07:20:49;;;;;;;0.00;0.00;;;16.00;64.20;;;;;;5054175;28;20033;-81
2021/10/02 07:23:19;;;;;;;0.00;0.00;;;16.10;64.00;;;;;;5053156;28;20033;-81
2021/10/02 07:25:45;;;;;;;0.00;0.00;;;16.20;63.50;;;;;;5039472;28;20053;-81
2021/10/02 07:28:10;;;;;;;0.00;0.00;;;16.40;63.30;;;;;;5016437;28;20473;-82
2021/10/02 07:30:39;;;;;;;0.00;0.00;;;16.50;63.00;;;;;;5034295;28;20443;-82
2021/10/02 07:33:05;;;;;;;0.00;0.00;;;16.70;62.50;;;;;;5039846;28;20037;-81
2021/10/02 07:35:31;;;;;;;0.00;0.00;;;16.90;61.90;;;;;;5047081;28;20029;-82
2021/10/02 07:37:57;;;;;;;0.00;0.00;;;17.00;61.40;;;;;;5046559;28;20112;-82
2021/10/02 07:40:23;;;;;;;0.00;0.00;;;17.20;60.90;;;;;;5043614;28;20028;-81
2021/10/02 07:42:55;;;;;;;0.00;0.00;;;17.40;60.30;;;;;;5006813;28;20029;-83
2021/10/02 07:45:23;;;;;;;0.00;0.00;;;17.60;59.80;;;;;;5051495;28;20119;-82
2021/10/02 07:47:52;;;;;;;0.00;0.00;;;17.80;59.10;;;;;;5054169;28;20029;-81
2021/10/02 07:50:19;;;;;;;0.00;0.00;;;18.10;58.50;;;;;;5054117;28;20159;-80
2021/10/02 07:52:45;;;;;;;0.00;0.00;;;18.30;57.80;;;;;;5053574;28;20044;-82
2021/10/02 07:55:13;;;;;;;0.00;0.00;;;18.50;56.80;;;;;;5053767;28;20484;-82
2021/10/02 07:57:40;;;;;;;0.00;0.00;;;18.80;56.20;;;;;;5053761;28;20424;-82
2021/10/02 08:00:08;;;;;;;0.00;0.00;;;19.10;55.40;;;;;;5053403;28;20033;-81
2021/10/02 08:02:34;;;;;;;0.00;0.00;;;19.50;54.20;;;;;;5053362;28;20037;-81
2021/10/02 08:05:01;;;;;;;0.00;0.00;;;19.80;53.00;;;;;;5036104;28;20376;-80
2021/10/02 08:07:30;;;;;;;0.00;0.00;;;20.30;52.00;;;;;;5035993;28;20416;-82
2021/10/02 08:09:56;;;;;;;0.00;0.00;;;20.90;49.70;;;;;;5052225;28;20052;-82
2021/10/02 08:12:22;;;;;;;0.00;0.00;;;21.60;48.80;;;;;;5054484;28;20072;-79
2021/10/02 08:14:47;;;;;;;0.00;0.00;;;22.40;47.20;;;;;;5035512;28;20433;-83
2021/10/02 08:17:14;;;;;;;0.00;0.00;;;23.20;45.80;;;;;;5053566;28;20035;-81
2021/10/02 08:19:40;;;;;;;0.00;0.00;;;24.00;44.20;;;;;;5053943;28;20025;-82
2021/10/02 08:22:08;;;;;;;0.00;0.00;;;24.90;42.90;;;;;;5053774;28;20025;-82
2021/10/02 08:24:35;;;;;;;0.00;0.00;;;25.70;42.10;;;;;;5055288;28;20032;-80
2021/10/02 08:27:03;;;;;;;0.00;0.00;;;26.40;40.80;;;;;;5058308;28;20048;-81
2021/10/02 08:29:31;;;;;;;0.00;0.00;;;27.10;39.80;;;;;;5041014;28;20033;-82
2021/10/02 08:31:57;;;;;;;0.00;0.00;;;27.70;39.20;;;;;;5058560;28;20435;-80
2021/10/02 08:34:28;;;;;;;0.00;0.00;;;28.30;38.60;;;;;;5041531;28;20120;-81
2021/10/02 08:36:57;;;;;;;0.00;0.00;;;28.90;37.80;;;;;;5060877;28;20104;-80
2021/10/02 08:39:37;;;;;;;0.00;0.00;;;29.30;37.20;;;;;;5060237;28;20025;-85
2021/10/02 08:42:05;;;;;;;0.00;0.00;;;29.70;36.30;;;;;;5060356;28;20106;-79
2021/10/02 08:44:34;;;;;;;0.00;0.00;;;30.20;36.10;;;;;;5056092;28;20036;-81
2021/10/02 08:47:02;;;;;;;0.00;0.00;;;30.60;35.60;;;;;;5050257;28;20021;-80
2021/10/02 08:49:31;;;;;;;0.00;0.00;;;30.90;35.50;;;;;;5040273;28;20060;-80
2021/10/02 08:52:09;;;;;;;0.00;0.00;;;31.20;34.80;;;;;;5050558;28;20033;-81
2021/10/02 08:54:39;;;;;;;0.00;0.00;;;31.30;33.30;;;;;;5030104;28;20044;-80
2021/10/02 08:57:10;;;;;;;0.25;0.00;;;31.40;33.40;;;;;;5051431;28;20076;-84
2021/10/02 08:59:38;;;;;;;0.00;0.00;;;31.60;33.10;;;;;;5049728;28;20377;-80
2021/10/02 09:02:07;;;;;;;0.00;0.00;;;31.60;32.80;;;;;;5050113;28;20547;-82
2021/10/02 09:04:54;;;;;;;0.00;0.00;;;31.80;32.40;;;;;;5049880;28;20031;-79
2021/10/02 09:07:23;;;;;;;0.00;0.00;;;32.10;32.00;;;;;;5045587;28;20021;-81
2021/10/02 09:09:54;;;;;;;0.00;0.00;;;32.50;32.20;;;;;;5047543;28;20117;-82
2021/10/02 09:12:21;;;;;;;0.00;0.00;;;33.00;32.00;;;;;;5026606;28;20392;-82
2021/10/02 09:14:48;;;;;;;0.00;0.00;;;33.30;31.70;;;;;;5044096;28;20087;-81
2021/10/02 09:17:13;;;;;;;0.00;0.00;;;33.60;31.20;;;;;;5045818;28;20373;-80
2021/10/02 09:19:39;;;;;;;0.00;0.00;;;33.90;30.60;;;;;;5028765;28;20104;-81
2021/10/02 09:22:09;;;;;;;0.00;0.00;;;34.20;30.10;;;;;;5043509;28;20055;-79
2021/10/02 09:24:38;;;;;;;0.00;0.00;;;34.40;29.80;;;;;;5047205;28;20037;-81
2021/10/02 09:27:28;;;;;;;0.00;0.00;;;34.60;28.80;;;;;;5049566;28;20076;-82
2021/10/02 09:29:58;;;;;;;0.00;0.00;;;34.10;28.70;;;;;;5043502;28;20383;-81
2021/10/02 09:32:33;;;;;;;0.00;0.00;;;33.80;29.10;;;;;;5025057;28;20120;-81
2021/10/02 09:35:22;;;;;;;0.00;0.00;;;33.60;29.40;;;;;;5035909;28;20052;-82
2021/10/02 09:37:53;;;;;;;0.00;0.00;;;33.90;29.60;;;;;;5050871;28;20022;-80
2021/10/02 09:40:21;;;;;;;0.00;0.00;;;34.40;29.50;;;;;;5036628;28;20028;-84
2021/10/02 09:42:56;;;;;;;0.10;0.10;;;34.90;29.20;;;;;;5051356;28;20432;-81
2021/10/02 09:45:38;;;;;;;0.00;0.00;;;35.20;29.10;;;;;;5031160;28;20082;-81
2021/10/02 09:48:15;;;;;;;0.00;0.00;;;35.40;28.80;;;;;;5043219;28;20029;-81
2021/10/02 09:50:43;;;;;;;0.00;0.00;;;35.70;28.40;;;;;;5042431;28;20345;-80
2021/10/02 09:53:16;;;;;;;0.00;0.00;;;35.90;28.20;;;;;;5046085;28;20079;-82
2021/10/02 09:55:44;;;;;;;0.00;0.00;;;36.20;28.00;;;;;;5045673;28;20017;-80
2021/10/02 09:58:15;;;;;;;0.00;0.00;;;36.30;27.90;;;;;;5043747;28;20104;-82
2021/10/02 10:00:43;;;;;;;0.00;0.00;;;36.10;27.10;;;;;;5050907;28;20029;-81
2021/10/02 10:03:12;;;;;;;0.00;0.00;;;35.90;27.20;;;;;;5044118;28;20033;-80
2021/10/02 10:05:43;;;;;;;0.00;0.00;;;35.40;27.10;;;;;;5046329;28;20028;-80
2021/10/02 10:08:12;;;;;;;0.00;0.00;;;35.20;27.40;;;;;;5051609;28;20078;-82
2021/10/02 10:10:40;;;;;;;0.00;0.00;;;35.40;27.50;;;;;;5027018;28;20086;-79
2021/10/02 10:13:15;;;;;;;0.00;0.00;;;35.80;27.30;;;;;;5027207;28;20029;-80
2021/10/02 10:15:47;;;;;;;0.00;0.00;;;35.90;27.00;;;;;;5048539;28;20490;-80
2021/10/02 10:18:15;;;;;;;0.00;0.00;;;36.20;27.00;;;;;;5046688;28;20079;-81
2021/10/02 10:20:52;;;;;;;0.00;0.00;;;36.30;26.50;;;;;;5045561;28;20124;-81
2021/10/02 10:23:34;;;;;;;0.00;0.00;;;36.20;26.40;;;;;;5046674;28;20029;-80
2021/10/02 10:26:05;;;;;;;0.00;0.00;;;36.10;26.60;;;;;;5045678;28;20045;-80
2021/10/02 10:28:33;;;;;;;0.00;0.00;;;36.50;26.70;;;;;;5017766;28;20033;-80
2021/10/02 10:31:11;;;;;;;0.00;0.00;;;36.70;27.10;;;;;;5035334;28;20473;-80
2021/10/02 10:33:40;;;;;;;0.00;0.00;;;36.80;26.80;;;;;;5034982;28;20053;-81
2021/10/02 10:36:07;;;;;;;0.00;0.00;;;36.50;26.30;;;;;;5035815;28;20033;-82
2021/10/02 10:38:35;;;;;;;0.00;0.00;;;36.10;26.30;;;;;;5035110;28;20385;-81
2021/10/02 10:41:04;;;;;;;0.00;0.00;;;36.00;26.60;;;;;;5035274;28;20028;-81
2021/10/02 10:43:34;;;;;;;0.00;0.00;;;35.90;26.60;;;;;;5034674;28;20031;-80
2021/10/02 10:46:03;;;;;;;0.00;0.00;;;35.90;26.60;;;;;;5017579;28;20036;-80
2021/10/02 10:48:28;;;;;;;0.00;0.00;;;36.00;26.70;;;;;;5033876;28;20032;-79
2021/10/02 10:51:19;;;;;;;0.00;0.00;;;36.40;26.80;;;;;;5034845;28;20442;-81
2021/10/02 10:53:51;;;;;;;0.00;0.00;;;36.70;26.50;;;;;;5017408;28;20505;-80
2021/10/02 10:56:37;;;;;;;0.00;0.00;;;36.70;26.40;;;;;;5034851;28;20025;-81
2021/10/02 10:59:03;;;;;;;0.00;0.00;;;36.00;26.90;;;;;;5017253;28;20056;-80
2021/10/02 11:01:38;;;;;;;0.00;0.00;;;35.70;26.40;;;;;;5034796;28;20025;-80
2021/10/02 11:04:05;;;;;;;0.00;0.00;;;35.30;26.20;;;;;;5034854;28;20044;-79
2021/10/02 11:06:51;;;;;;;0.00;0.00;;;34.80;26.30;;;;;;5034691;28;20440;-81
2021/10/02 11:09:33;;;;;;;0.00;0.00;;;34.40;26.50;;;;;;5034685;28;20095;-80
2021/10/02 11:11:59;;;;;;;0.00;0.00;;;34.50;26.70;;;;;;5034337;28;20083;-80
2021/10/02 11:14:46;;;;;;;0.00;0.00;;;34.70;26.80;;;;;;5034559;28;20022;-80
2021/10/02 11:17:12;;;;;;;0.00;0.00;;;34.80;26.70;;;;;;5034491;28;20426;-79
2021/10/02 11:19:39;;;;;;;0.00;0.00;;;35.00;26.70;;;;;;5034454;28;20025;-79
2021/10/02 11:22:30;;;;;;;0.00;0.00;;;35.00;26.70;;;;;;5016823;28;20053;-79
2021/10/02 11:24:57;;;;;;;0.00;0.00;;;35.00;26.70;;;;;;5034614;28;20466;-80
2021/10/02 11:27:25;;;;;;;0.00;0.00;;;35.50;26.90;;;;;;5054089;28;20115;-82
2021/10/02 11:29:51;;;;;;;0.00;0.00;;;36.10;26.90;;;;;;5065334;28;20105;-80
2021/10/02 11:32:17;;;;;;;0.00;0.00;;;36.60;26.70;;;;;;5052569;28;20135;-83
2021/10/02 11:35:08;;;;;;;0.00;0.00;;;36.90;26.60;;;;;;5054280;28;20100;-80
2021/10/02 11:38:03;;;;;;;0.00;0.00;;;37.00;26.30;;;;;;5035070;28;20426;-81
2021/10/02 11:40:32;;;;;;;0.00;0.00;;;37.30;26.40;;;;;;5053972;28;20526;-82
2021/10/02 11:43:17;;;;;;;0.00;0.00;;;37.60;26.20;;;;;;5053681;28;20025;-81
2021/10/02 11:45:45;;;;;;;0.00;0.00;;;37.40;26.00;;;;;;5054450;28;20028;-83
2021/10/02 11:48:16;;;;;;;0.00;0.00;;;37.30;26.00;;;;;;5037653;28;20074;-82
2021/10/02 11:50:45;;;;;;;0.00;0.00;;;37.10;26.00;;;;;;5055404;28;20100;-81
2021/10/02 11:53:11;;;;;;;0.00;0.00;;;37.10;26.10;;;;;;5038421;28;20033;-80
2021/10/02 11:55:47;;;;;;;0.00;0.00;;;37.10;26.00;;;;;;5057004;28;20648;-80
2021/10/02 11:58:14;;;;;;;0.00;0.00;;;36.90;25.80;;;;;;5038807;28;20028;-80
2021/10/02 12:00:45;;;;;;;0.00;0.00;;;36.50;25.90;;;;;;5056326;28;20025;-80
2021/10/02 12:03:18;;;;;;;0.00;0.00;;;36.30;26.20;;;;;;5056005;28;20025;-82
2021/10/02 12:05:44;;;;;;;;;;;36.40;26.10;;;;;;5056290;28;20032;-81
2021/10/02 12:08:11;;;;;;;0.00;0.00;;;36.40;26.40;;;;;;5053867;28;19905;-81
2021/10/02 12:10:58;;;;;;;0.00;0.00;;;36.40;26.10;;;;;;5054198;28;20055;-80
2021/10/02 12:13:30;;;;;;;0.00;0.00;;;36.40;26.10;;;;;;5035672;28;20033;-81
2021/10/02 12:16:07;;;;;;;0.00;0.00;;;36.40;26.10;;;;;;5026508;28;20036;-81
2021/10/02 12:18:51;;;;;;;0.00;0.00;;;36.20;25.80;;;;;;5033685;28;20025;-81
2021/10/02 12:21:23;;;;;;;0.00;0.00;;;35.60;25.70;;;;;;5033960;28;20466;-81
2021/10/02 12:24:26;;;;;;;0.00;0.00;;;35.30;25.80;;;;;;5015998;28;20033;-82
2021/10/02 12:27:10;;;;;;;0.00;0.00;;;35.20;25.80;;;;;;4972364;28;20066;-82
2021/10/02 12:29:47;;;;;;;0.00;0.00;;;35.20;25.80;;;;;;5029213;28;20173;-81
2021/10/02 12:32:15;;;;;;;0.00;0.00;;;35.40;25.80;;;;;;5033547;28;20034;-81
2021/10/02 12:34:47;;;;;;;0.00;0.00;;;35.40;25.70;;;;;;5030833;28;20095;-82
2021/10/02 12:37:30;;;;;;;0.00;0.00;;;35.30;25.70;;;;;;5015304;28;20052;-81
2021/10/02 12:40:08;;;;;;;0.00;0.00;;;35.30;25.80;;;;;;5017581;28;20034;-81
2021/10/02 12:42:43;;;;;;;0.00;0.00;;;35.60;26.00;;;;;;5032697;28;20021;-82
2021/10/02 12:45:11;;;;;;;0.00;0.00;;;35.80;25.90;;;;;;5032795;28;20024;-83
2021/10/02 12:47:37;;;;;;;0.00;0.00;;;35.90;25.80;;;;;;5032537;28;20087;-82
2021/10/02 12:50:08;;;;;;;0.00;0.00;;;35.60;25.80;;;;;;5015139;28;20083;-81
2021/10/02 12:52:34;;;;;;;0.00;0.00;;;35.20;25.70;;;;;;5033022;28;20036;-81
2021/10/02 12:55:01;;;;;;;0.10;0.00;;;35.00;25.90;;;;;;5031635;28;20381;-81
2021/10/02 12:57:34;;;;;;;0.00;0.00;;;35.10;25.90;;;;;;5017736;28;20220;-81
2021/10/02 13:00:16;;;;;;;0.00;0.00;;;34.90;25.80;;;;;;5045711;28;20021;-81
2021/10/02 13:02:44;;;;;;;0.00;0.00;;;34.70;25.80;;;;;;5042121;28;20080;-83
2021/10/02 13:05:12;;;;;;;0.00;0.00;;;34.30;25.90;;;;;;5021248;28;20020;-81
2021/10/02 13:07:49;;;;;;;0.00;0.00;;;34.10;26.00;;;;;;5043829;28;20033;-82
2021/10/02 13:10:33;;;;;;;0.00;0.00;;;34.00;25.90;;;;;;5043748;28;20049;-82
2021/10/02 13:13:04;;;;;;;0.00;0.00;;;33.80;25.80;;;;;;5047704;28;20033;-82
2021/10/02 13:15:34;;;;;;;0.00;0.00;;;33.80;26.00;;;;;;5047555;28;20036;-82
2021/10/02 13:18:23;;;;;;;0.00;0.00;;;33.80;26.00;;;;;;5055080;28;20021;-82
2021/10/02 13:20:48;;;;;;;0.00;0.00;;;33.90;26.60;;;;;;5036531;28;20021;-82
2021/10/02 13:23:32;;;;;;;0.00;0.00;;;33.90;26.00;;;;;;5036550;28;20386;-82
2021/10/02 13:26:02;;;;;;;0.00;0.00;;;33.90;26.00;;;;;;5036555;28;20045;-81
2021/10/02 13:28:48;;;;;;;0.00;0.00;;;33.70;26.10;;;;;;5036257;28;20454;-80
2021/10/02 13:31:20;;;;;;;0.00;0.00;;;33.70;26.00;;;;;;5036106;28;20026;-81
2021/10/02 13:33:52;;;;;;;0.00;0.00;;;33.60;26.00;;;;;;5036477;28;20037;-81
2021/10/02 13:36:27;;;;;;;0.00;0.00;;;33.60;26.20;;;;;;5018658;28;20029;-80
2021/10/02 13:38:54;;;;;;;0.00;0.00;;;33.40;26.20;;;;;;5036507;28;20053;-81
2021/10/02 13:41:20;;;;;;;0.00;0.00;;;33.60;26.40;;;;;;5035780;28;20033;-84
2021/10/02 13:44:02;;;;;;;0.00;0.00;;;33.70;26.40;;;;;;5036547;28;20060;-81
2021/10/02 13:46:34;;;;;;;0.00;0.00;;;33.90;26.30;;;;;;5036267;28;20061;-81
2021/10/02 13:49:03;;;;;;;0.00;0.00;;;34.00;26.40;;;;;;5002392;28;20501;-82
2021/10/02 13:51:30;;;;;;;0.00;0.00;;;34.00;26.40;;;;;;5036663;28;20488;-80
2021/10/02 13:53:56;;;;;;;0.00;0.00;;;34.00;26.40;;;;;;5036432;28;20496;-82
2021/10/02 13:56:41;;;;;;;0.00;0.00;;;34.10;26.40;;;;;;5036263;28;20028;-84
2021/10/02 13:59:09;;;;;;;0.00;0.00;;;33.90;26.20;;;;;;5020009;28;20116;-81